Time;durP1;ratioP1;P1;durP2;ratioP2;P2;SDS_P1;SDS_P2;PMS_P1;PMS_P2;Temp;Humidity;BMP_temperature;BMP_pressure;BME280_temperature;BME280_humidity;BME280_pressure;Samples;Min_cycle;Max_cycle;Signal;HPM_P1;HPM_P2
2023/03/09 00:00:39;;;;;;;11.90;10.82;;;;;;;8.47;97.71;97511.53;10415679;28;20130;-71
2023/03/09 00:05:52;;;;;;;11.88;10.77;;;;;;;8.50;98.40;97523.63;10407930;28;20047;-68
2023/03/09 00:10:55;;;;;;;9.10;7.57;;;;;;;8.60;100.00;97526.03;10411952;28;20053;-69
2023/03/09 00:16:06;;;;;;;7.97;7.18;;;;;;;8.58;100.00;97534.16;10427730;28;20044;-69
2023/03/09 00:21:14;;;;;;;11.15;9.98;;;;;;;8.53;100.00;97522.44;10413680;28;20069;-70
2023/03/09 00:26:16;;;;;;;12.80;11.60;;;;;;;8.55;100.00;97515.94;10415922;28;20056;-70
2023/03/09 00:31:17;;;;;;;10.63;9.63;;;;;;;8.59;100.00;97521.75;10416033;28;20045;-72
2023/03/09 00:36:19;;;;;;;10.23;9.23;;;;;;;8.56;100.00;97498.25;10411917;28;20574;-71
2023/03/09 00:41:33;;;;;;;9.63;8.73;;;;;;;8.73;100.00;97515.66;10411481;28;20048;-71
2023/03/09 00:46:35;;;;;;;11.27;10.07;;;;;;;8.74;100.00;97514.66;10414101;28;20099;-70
2023/03/09 00:51:37;;;;;;;11.57;10.45;;;;;;;8.52;100.00;97470.44;10410248;28;20237;-72
2023/03/09 00:56:39;;;;;;;12.27;10.50;;;;;;;8.68;99.83;97499.47;10410219;28;20063;-72
2023/03/09 01:01:40;;;;;;;12.35;11.13;;;;;;;8.79;99.01;97514.09;10408767;28;20590;-72
2023/03/09 01:06:42;;;;;;;11.73;10.60;;;;;;;8.41;100.00;97463.69;10410946;28;20163;-72
2023/03/09 01:11:43;;;;;;;10.55;9.55;;;;;;;8.59;100.00;97495.22;10409266;28;20071;-73
2023/03/09 01:16:45;;;;;;;8.50;7.80;;;;;;;8.65;100.00;97505.94;10411399;28;20207;-71
2023/03/09 01:21:46;;;;;;;8.25;7.45;;;;;;;8.69;100.00;97521.47;10410406;28;20071;-72
2023/03/09 01:26:48;;;;;;;8.13;7.43;;;;;;;8.88;100.00;97528.13;10408346;28;20124;-73
2023/03/09 01:31:50;;;;;;;8.63;7.85;;;;;;;8.71;100.00;97508.84;10417227;28;20252;-71
2023/03/09 01:36:51;;;;;;;7.50;6.90;;;;;;;8.80;100.00;97531.69;10408623;28;20340;-73
2023/03/09 01:41:53;;;;;;;8.48;7.75;;;;;;;8.71;100.00;97504.41;10411621;28;20072;-73
2023/03/09 01:46:56;;;;;;;8.57;7.80;;;;;;;8.64;100.00;97471.63;10414506;28;20121;-74
2023/03/09 01:52:14;;;;;;;7.35;6.68;;;;;;;8.87;100.00;97516.69;10412690;28;20334;-72
2023/03/09 01:57:29;;;;;;;7.30;6.45;;;;;;;9.05;100.00;97545.53;10382010;28;20176;-71
2023/03/09 02:02:33;;;;;;;4.82;4.43;;;;;;;9.06;100.00;97567.59;10402303;28;20155;-71
2023/03/09 02:07:37;;;;;;;5.50;4.47;;;;;;;8.89;100.00;97546.53;10406227;28;20450;-72
2023/03/09 02:12:40;;;;;;;6.25;4.35;;;;;;;8.92;100.00;97540.03;10424925;28;20491;-70
2023/03/09 02:17:41;;;;;;;5.57;5.18;;;;;;;8.93;100.00;97544.31;10418496;28;20072;-72
2023/03/09 02:22:44;;;;;;;5.25;4.70;;;;;;;8.97;100.00;97548.28;10427403;28;20049;-72
2023/03/09 02:27:46;;;;;;;6.45;4.57;;;;;;;8.94;100.00;97551.28;10424412;28;20059;-70
2023/03/09 02:32:48;;;;;;;5.90;5.35;;;;;;;8.98;100.00;97582.59;10415047;28;20126;-69
2023/03/09 02:37:49;;;;;;;5.68;5.15;;;;;;;9.02;100.00;97599.81;10417369;28;20609;-70
2023/03/09 02:42:52;;;;;;;4.53;4.13;;;;;;;9.01;100.00;97605.28;10420186;28;20463;-70
2023/03/09 02:47:55;;;;;;;4.03;3.55;;;;;;;8.98;100.00;97603.00;10417545;28;20064;-69
2023/03/09 02:52:56;;;;;;;4.35;3.10;;;;;;;9.07;100.00;97607.22;10415057;28;20060;-72
2023/03/09 02:57:58;;;;;;;2.58;2.38;;;;;;;9.00;100.00;97633.63;10414107;28;20088;-71
2023/03/09 03:02:59;;;;;;;3.20;2.60;;;;;;;8.97;100.00;97638.47;10405434;28;20052;-70
2023/03/09 03:08:01;;;;;;;3.55;2.40;;;;;;;8.96;100.00;97650.09;10415578;28;20072;-71
2023/03/09 03:13:03;;;;;;;2.78;2.13;;;;;;;8.70;100.00;97627.38;10415371;28;20368;-70
2023/03/09 03:18:04;;;;;;;1.52;1.20;;;;;;;8.89;100.00;97663.25;10414176;28;20071;-72
2023/03/09 03:23:06;;;;;;;2.35;1.25;;;;;;;8.96;100.00;97692.53;10411309;28;20114;-69
2023/03/09 03:28:07;;;;;;;2.60;1.17;;;;;;;8.98;100.00;97698.50;10410913;28;20049;-73
2023/03/09 03:33:08;;;;;;;1.40;0.90;;;;;;;8.97;100.00;97702.97;10411086;28;20523;-71
2023/03/09 03:38:10;;;;;;;1.25;0.65;;;;;;;8.83;100.00;97696.59;10401788;28;20052;-70
2023/03/09 03:43:12;;;;;;;1.23;0.50;;;;;;;8.94;100.00;97723.75;10415894;28;20123;-71
2023/03/09 03:48:13;;;;;;;0.77;0.30;;;;;;;8.99;100.00;97745.25;10411170;28;20060;-70
2023/03/09 03:53:15;;;;;;;1.98;0.43;;;;;;;8.98;100.00;97756.88;10412957;28;20080;-70
2023/03/09 03:58:16;;;;;;;1.50;0.75;;;;;;;9.10;100.00;97789.97;10427022;28;20041;-71
2023/03/09 04:03:17;;;;;;;1.25;0.10;;;;;;;9.10;99.89;97797.13;10415074;28;20040;-70
2023/03/09 04:08:19;;;;;;;1.23;0.10;;;;;;;9.17;98.83;97806.88;10444341;28;20596;-72
2023/03/09 04:13:21;;;;;;;0.47;0.20;;;;;;;9.18;98.26;97816.47;10451345;28;20438;-71
2023/03/09 04:18:23;;;;;;;0.90;0.20;;;;;;;9.14;97.22;97812.53;10430115;28;20110;-70
2023/03/09 04:23:24;;;;;;;0.22;0.10;;;;;;;9.27;96.69;97841.16;10426596;28;20068;-71
2023/03/09 04:28:26;;;;;;;0.65;0.10;;;;;;;9.27;95.72;97849.09;10421276;28;20049;-72
2023/03/09 04:33:27;;;;;;;1.45;0.40;;;;;;;9.24;95.26;97868.03;10428516;28;20075;-72
2023/03/09 04:38:29;;;;;;;0.30;0.10;;;;;;;9.09;95.42;97859.97;10419541;28;20315;-71
2023/03/09 04:43:30;;;;;;;1.08;0.13;;;;;;;9.10;95.12;97866.13;10425867;28;20057;-72
2023/03/09 04:48:31;;;;;;;0.20;0.10;;;;;;;9.21;94.84;97900.25;10424847;28;20057;-71
2023/03/09 04:53:33;;;;;;;0.50;0.17;;;;;;;9.21;94.99;97916.16;10421156;28;20051;-72
2023/03/09 04:58:35;;;;;;;0.30;0.10;;;;;;;9.20;95.75;97922.47;10430792;28;20108;-70
2023/03/09 05:03:36;;;;;;;1.27;0.30;;;;;;;9.13;97.07;97913.56;10418689;28;20061;-70
2023/03/09 05:08:39;;;;;;;0.45;0.17;;;;;;;9.13;98.12;97932.94;10417932;28;20064;-72
2023/03/09 05:13:41;;;;;;;1.23;0.22;;;;;;;9.16;99.56;97940.56;10416299;28;20059;-71
2023/03/09 05:18:43;;;;;;;0.20;0.10;;;;;;;9.11;100.00;97942.06;10427756;28;20093;-70
2023/03/09 05:23:44;;;;;;;0.80;0.20;;;;;;;9.14;100.00;97947.88;10418549;28;20056;-70
2023/03/09 05:28:48;;;;;;;0.95;0.25;;;;;;;9.20;100.00;97956.97;10417476;28;20137;-69
2023/03/09 05:33:52;;;;;;;0.30;0.10;;;;;;;9.27;100.00;97975.72;10415838;28;20123;-70
2023/03/09 05:38:54;;;;;;;1.50;0.30;;;;;;;9.10;100.00;97967.78;10416212;28;20484;-70
2023/03/09 05:43:55;;;;;;;1.58;0.38;;;;;;;9.14;100.00;97970.94;10417723;28;20091;-70
2023/03/09 05:48:56;;;;;;;1.50;0.40;;;;;;;9.23;100.00;97998.28;10431942;28;20033;-72
2023/03/09 05:53:58;;;;;;;3.80;0.40;;;;;;;9.26;100.00;98008.56;10460398;28;20063;-71
2023/03/09 05:58:59;;;;;;;1.50;0.50;;;;;;;9.30;100.00;98028.47;10401322;28;20084;-73
2023/03/09 06:04:00;;;;;;;2.33;0.50;;;;;;;9.25;100.00;98022.81;10418214;28;20056;-68
2023/03/09 06:09:02;;;;;;;3.22;0.65;;;;;;;9.17;100.00;98011.25;10401680;28;20131;-69
2023/03/09 06:14:04;;;;;;;0.90;0.30;;;;;;;9.32;100.00;98037.09;10403648;28;20426;-68
2023/03/09 06:19:05;;;;;;;2.95;0.50;;;;;;;9.25;99.92;98038.75;10399500;28;20153;-70
2023/03/09 06:24:09;;;;;;;1.98;0.50;;;;;;;9.24;99.61;98058.34;10408343;28;20056;-71
2023/03/09 06:29:11;;;;;;;3.80;0.83;;;;;;;9.31;98.53;98075.28;10406353;28;20415;-70
2023/03/09 06:34:14;;;;;;;3.22;0.75;;;;;;;9.33;98.16;98073.25;10420593;28;20127;-71
2023/03/09 06:39:16;;;;;;;2.60;1.07;;;;;;;9.18;98.26;98075.78;10406795;28;20598;-71
2023/03/09 06:44:17;;;;;;;2.25;0.70;;;;;;;9.30;98.33;98078.91;10409726;28;20122;-71
2023/03/09 06:49:19;;;;;;;4.22;1.30;;;;;;;9.13;98.40;98063.00;10424430;28;20053;-72
2023/03/09 06:54:20;;;;;;;3.85;1.35;;;;;;;9.28;98.62;98096.84;10413205;28;20044;-71
2023/03/09 06:59:21;;;;;;;5.70;1.42;;;;;;;9.29;98.36;98103.78;10410540;28;20740;-69
2023/03/09 07:04:23;;;;;;;5.40;1.67;;;;;;;9.11;98.55;98080.09;10413587;28;20455;-70
2023/03/09 07:09:24;;;;;;;6.47;2.55;;;;;;;9.33;98.93;98129.84;10419861;28;20057;-72
2023/03/09 07:14:27;;;;;;;3.80;1.30;;;;;;;9.03;99.02;98094.19;10397747;28;20457;-73
2023/03/09 07:19:28;;;;;;;3.45;1.58;;;;;;;9.25;99.17;98129.84;10412049;28;20045;-72
2023/03/09 07:24:29;;;;;;;6.10;2.78;;;;;;;9.25;98.64;98132.50;10425484;28;20045;-69
2023/03/09 07:29:31;;;;;;;6.72;2.58;;;;;;;9.44;98.00;98173.81;10428899;28;20051;-69
2023/03/09 07:34:33;;;;;;;7.20;2.03;;;;;;;9.47;97.59;98181.47;10399539;28;20060;-67
2023/03/09 07:39:34;;;;;;;4.32;1.95;;;;;;;9.45;97.23;98182.63;10404568;28;20131;-71
2023/03/09 07:44:36;;;;;;;6.85;2.28;;;;;;;9.45;97.25;98190.59;10410881;28;20053;-69
2023/03/09 07:49:37;;;;;;;10.05;2.97;;;;;;;9.51;98.14;98185.41;10409090;28;20065;-68
2023/03/09 07:54:38;;;;;;;7.68;2.95;;;;;;;9.55;99.06;98215.97;10404990;28;20143;-71
2023/03/09 07:59:40;;;;;;;8.20;1.95;;;;;;;9.47;100.00;98194.75;10405451;28;20337;-67
2023/03/09 08:04:42;;;;;;;6.97;2.97;;;;;;;9.46;100.00;98203.69;10402619;28;20517;-70
2023/03/09 08:09:43;;;;;;;4.13;2.78;;;;;;;9.57;100.00;98228.25;10406143;28;20049;-69
2023/03/09 08:14:45;;;;;;;6.40;2.97;;;;;;;9.66;100.00;98224.59;10403848;28;20733;-71
2023/03/09 08:19:46;;;;;;;8.10;3.10;;;;;;;9.64;100.00;98227.44;10424174;28;20522;-69
2023/03/09 08:24:49;;;;;;;5.03;2.25;;;;;;;9.66;100.00;98225.41;10408764;28;20224;-67
2023/03/09 08:29:52;;;;;;;4.68;2.15;;;;;;;9.66;99.04;98229.91;10392676;28;20052;-71
2023/03/09 08:34:55;;;;;;;5.30;2.00;;;;;;;9.82;98.78;98253.81;10403899;28;20756;-71
2023/03/09 08:39:57;;;;;;;5.20;2.13;;;;;;;9.77;97.37;98242.03;10415194;28;20051;-69
2023/03/09 08:44:58;;;;;;;4.00;2.40;;;;;;;9.79;96.36;98243.53;10402146;28;20063;-69
2023/03/09 08:50:00;;;;;;;3.92;1.50;;;;;;;9.90;95.92;98261.75;10403757;28;20617;-68
2023/03/09 08:55:02;;;;;;;3.22;1.20;;;;;;;9.97;96.20;98282.34;10418798;28;20066;-69
2023/03/09 09:00:09;;;;;;;3.13;1.15;;;;;;;10.07;97.48;98294.50;10402490;28;20534;-70
2023/03/09 09:05:11;;;;;;;5.85;1.52;;;;;;;10.05;98.78;98316.91;10399004;28;20186;-68
2023/03/09 09:10:12;;;;;;;3.90;1.50;;;;;;;10.13;99.59;98308.91;10404162;28;20111;-68
2023/03/09 09:15:27;;;;;;;;;;;;;;;10.17;98.88;98314.75;10396809;28;20121;-68
2023/03/09 09:20:29;;;;;;;2.35;1.58;;;;;;;10.12;98.21;98298.44;10400967;28;20392;-68
2023/03/09 09:25:30;;;;;;;2.15;1.52;;;;;;;10.14;96.06;98296.47;10402944;28;20083;-70
2023/03/09 09:30:36;;;;;;;3.40;1.75;;;;;;;10.32;93.54;98322.88;10403443;28;20512;-72
2023/03/09 09:35:39;;;;;;;2.72;1.40;;;;;;;10.75;92.77;98332.25;10402328;28;20081;-73
2023/03/09 09:40:42;;;;;;;3.33;1.52;;;;;;;11.03;88.78;98342.44;10403676;28;20052;-72
2023/03/09 09:45:45;;;;;;;2.53;1.20;;;;;;;10.96;87.77;98352.97;10405353;28;20385;-72
2023/03/09 09:51:04;;;;;;;5.43;1.17;;;;;;;10.93;89.53;98358.66;10404306;28;20056;-72
2023/03/09 09:56:12;;;;;;;3.10;1.00;;;;;;;10.74;89.50;98343.88;10400047;28;20090;-73
2023/03/09 10:01:25;;;;;;;4.22;1.63;;;;;;;10.82;90.91;98366.16;10415676;28;20048;-74
2023/03/09 10:06:27;;;;;;;2.08;1.05;;;;;;;11.01;89.94;98391.56;10409689;28;20045;-72
2023/03/09 10:11:33;;;;;;;2.55;1.23;;;;;;;11.01;90.35;98378.25;10403249;28;20049;-73
2023/03/09 10:16:43;;;;;;;4.03;1.23;;;;;;;11.02;89.88;98378.09;10400444;28;20186;-74
2023/03/09 10:21:54;;;;;;;5.15;1.10;;;;;;;10.99;88.66;98372.25;10406592;28;20148;-71
2023/03/09 10:27:08;;;;;;;3.65;1.27;;;;;;;11.11;87.06;98392.19;10407849;28;20052;-69
2023/03/09 10:32:18;;;;;;;5.05;1.60;;;;;;;11.07;86.75;98396.19;10405650;28;20052;-72
2023/03/09 10:37:23;;;;;;;5.35;1.38;;;;;;;11.07;86.73;98397.03;10404298;28;20554;-73
2023/03/09 10:42:26;;;;;;;3.55;1.08;;;;;;;11.07;87.46;98391.69;10414201;28;20057;-73
2023/03/09 10:47:54;;;;;;;5.00;1.08;;;;;;;11.12;86.51;98416.00;10412858;28;20075;-68
2023/03/09 10:52:56;;;;;;;3.88;1.42;;;;;;;11.18;85.85;98430.44;10419702;28;20102;-69
2023/03/09 10:58:02;;;;;;;6.70;1.60;;;;;;;11.28;85.19;98436.38;10405876;28;20156;-68
2023/03/09 11:03:03;;;;;;;7.18;1.63;;;;;;;11.34;83.79;98437.53;10420351;28;20099;-72
2023/03/09 11:08:07;;;;;;;7.65;1.98;;;;;;;11.36;83.55;98434.69;10409481;28;20377;-68
2023/03/09 11:13:19;;;;;;;4.13;1.40;;;;;;;11.48;83.38;98447.47;10403129;28;20065;-66
2023/03/09 11:18:29;;;;;;;4.57;1.58;;;;;;;11.62;81.09;98455.72;10400643;28;20045;-67
2023/03/09 11:23:41;;;;;;;8.68;1.40;;;;;;;11.65;81.10;98458.88;10405303;28;20092;-71
2023/03/09 11:28:49;;;;;;;8.02;1.60;;;;;;;11.62;81.32;98463.72;10405552;28;20052;-73
2023/03/09 11:33:55;;;;;;;5.32;1.63;;;;;;;11.59;79.72;98470.25;10409680;28;20072;-73
2023/03/09 11:38:57;;;;;;;3.88;1.38;;;;;;;11.57;79.83;98466.06;10407179;28;20048;-69
2023/03/09 11:44:29;;;;;;;3.60;1.48;;;;;;;11.71;80.37;98472.50;10420564;28;20052;-68
2023/03/09 11:49:33;;;;;;;5.32;1.10;;;;;;;11.79;80.15;98462.63;10398720;28;20063;-68
2023/03/09 11:54:44;;;;;;;2.87;0.90;;;;;;;11.75;79.64;98458.66;10417686;28;20063;-69
2023/03/09 11:59:59;;;;;;;3.75;1.48;;;;;;;11.70;79.50;98460.19;10428395;28;20049;-69
2023/03/09 12:05:01;;;;;;;3.85;1.27;;;;;;;11.87;78.81;98463.59;10405487;28;20052;-70
2023/03/09 12:10:24;;;;;;;9.43;3.25;;;;;;;11.83;78.16;98418.63;10405942;28;20114;-68
2023/03/09 12:15:54;;;;;;;7.53;3.78;;;;;;;12.05;78.54;98471.34;10400460;28;20084;-68
2023/03/09 12:21:03;;;;;;;3.00;0.82;;;;;;;11.91;78.38;98443.59;10405885;28;20143;-67
2023/03/09 12:26:29;;;;;;;2.80;1.10;;;;;;;11.95;80.12;98460.91;10425721;28;20111;-69
2023/03/09 12:31:33;;;;;;;3.70;1.00;;;;;;;11.81;80.00;98433.97;10417227;28;20114;-68
2023/03/09 12:36:39;;;;;;;4.00;1.20;;;;;;;12.25;77.94;98445.88;10405344;28;20179;-70
2023/03/09 12:42:03;;;;;;;3.63;1.67;;;;;;;12.17;77.66;98451.25;10401826;28;20045;-68
2023/03/09 12:47:19;;;;;;;6.43;1.30;;;;;;;12.17;77.96;98470.78;10393063;28;20041;-68
2023/03/09 12:52:31;;;;;;;5.40;1.42;;;;;;;12.39;77.00;98441.59;10402742;28;20060;-69
2023/03/09 12:57:32;;;;;;;3.17;1.02;;;;;;;12.33;75.78;98463.66;10403264;28;20131;-68
2023/03/09 13:02:36;;;;;;;2.85;1.10;;;;;;;12.25;76.70;98448.53;10400826;28;20057;-69
2023/03/09 13:07:38;;;;;;;3.22;1.67;;;;;;;12.22;75.63;98432.91;10404601;28;21356;-70
2023/03/09 13:12:39;;;;;;;4.22;1.42;;;;;;;12.50;75.40;98441.16;10390773;28;20060;-68
2023/03/09 13:17:42;;;;;;;5.53;1.20;;;;;;;12.90;72.18;98443.63;10396340;28;21043;-69
2023/03/09 13:22:44;;;;;;;4.45;1.65;;;;;;;13.56;69.11;98414.31;10400932;28;20057;-70
2023/03/09 13:27:56;;;;;;;5.95;1.73;;;;;;;13.63;68.40;98430.44;10402799;28;20049;-68
2023/03/09 13:32:57;;;;;;;7.05;1.77;;;;;;;14.78;64.43;98439.38;10401339;28;20784;-66
2023/03/09 13:38:00;;;;;;;6.60;1.50;;;;;;;15.90;58.00;98409.84;10401990;28;20083;-68
2023/03/09 13:43:24;;;;;;;5.72;1.52;;;;;;;14.87;59.45;98399.06;10404436;28;20111;-68
2023/03/09 13:48:27;;;;;;;4.40;1.35;;;;;;;14.87;60.09;98420.50;10399566;28;20138;-68
2023/03/09 13:53:28;;;;;;;5.03;2.10;;;;;;;14.31;61.57;98387.28;10396196;28;20716;-68
2023/03/09 13:58:41;;;;;;;5.65;1.63;;;;;;;14.09;61.33;98408.69;10399596;28;20064;-72
2023/03/09 14:03:47;;;;;;;6.85;1.88;;;;;;;13.66;62.37;98430.06;10395813;28;20056;-70
2023/03/09 14:08:52;;;;;;;3.90;1.40;;;;;;;13.48;64.39;98416.25;10395289;28;20188;-69
2023/03/09 14:14:00;;;;;;;5.95;1.67;;;;;;;13.47;65.11;98425.31;10402153;28;20389;-69
2023/03/09 14:19:03;;;;;;;5.57;1.88;;;;;;;13.39;64.80;98427.06;10396009;28;20139;-69
2023/03/09 14:24:31;;;;;;;8.82;2.03;;;;;;;13.34;66.14;98436.66;10402675;28;20163;-68
2023/03/09 14:29:33;;;;;;;4.70;1.77;;;;;;;13.02;70.89;98428.81;10401681;28;20053;-70
2023/03/09 14:34:35;;;;;;;3.90;1.40;;;;;;;12.73;73.10;98414.44;10416460;28;20387;-70
2023/03/09 14:39:43;;;;;;;4.78;1.20;;;;;;;13.09;73.18;98435.06;10411636;28;20693;-70
2023/03/09 14:44:58;;;;;;;4.85;1.77;;;;;;;13.15;71.79;98421.97;10411323;28;20045;-69
2023/03/09 14:50:00;;;;;;;3.15;1.17;;;;;;;12.98;72.13;98411.47;10396343;28;20522;-69
2023/03/09 14:55:02;;;;;;;5.10;1.70;;;;;;;13.13;70.91;98416.00;10398222;28;20063;-69
2023/03/09 15:00:05;;;;;;;4.47;1.63;;;;;;;13.30;70.07;98405.94;10398216;28;20064;-69
2023/03/09 15:05:13;;;;;;;5.00;1.67;;;;;;;13.65;68.07;98407.03;10410005;28;20136;-69
2023/03/09 15:10:16;;;;;;;5.05;1.50;;;;;;;13.65;66.98;98403.53;10395183;28;20057;-70
2023/03/09 15:15:21;;;;;;;4.25;1.52;;;;;;;13.57;67.31;98388.41;10394719;28;20068;-70
2023/03/09 15:20:24;;;;;;;4.88;1.70;;;;;;;13.66;67.12;98407.84;10391348;28;20053;-69
2023/03/09 15:25:43;;;;;;;5.13;2.38;;;;;;;13.67;67.46;98426.38;10399096;28;20063;-69
2023/03/09 15:30:45;;;;;;;7.47;1.80;;;;;;;13.57;67.60;98410.63;10397707;28;20068;-68
2023/03/09 15:35:47;;;;;;;5.15;1.38;;;;;;;13.35;68.09;98401.72;10390393;28;20057;-69
2023/03/09 15:40:48;;;;;;;8.50;1.50;;;;;;;13.22;66.54;98412.22;10394404;28;20052;-69
2023/03/09 15:45:49;;;;;;;7.70;1.92;;;;;;;13.23;66.19;98406.69;10398259;28;20053;-68
2023/03/09 15:50:51;;;;;;;7.38;1.83;;;;;;;13.24;66.60;98388.81;10394080;28;20049;-71
2023/03/09 15:56:03;;;;;;;6.95;2.30;;;;;;;13.19;67.71;98402.72;10392177;28;20526;-70
2023/03/09 16:01:11;;;;;;;4.65;1.75;;;;;;;13.25;68.28;98414.50;10388788;28;20055;-70
2023/03/09 16:06:13;;;;;;;4.90;2.05;;;;;;;13.24;67.83;98416.38;10391772;28;20049;-70
2023/03/09 16:11:15;;;;;;;5.05;1.98;;;;;;;13.28;67.37;98406.13;10405554;28;20199;-68
2023/03/09 16:16:17;;;;;;;8.98;3.28;;;;;;;13.24;67.40;98410.19;10389264;28;20154;-67
2023/03/09 16:21:18;;;;;;;9.20;3.10;;;;;;;13.10;68.00;98419.88;10382097;28;20130;-68
2023/03/09 16:26:21;;;;;;;5.03;2.00;;;;;;;13.07;68.61;98421.06;10386982;28;20053;-68
2023/03/09 16:31:25;;;;;;;8.65;2.80;;;;;;;12.95;69.66;98411.03;10391927;28;20603;-68
2023/03/09 16:36:28;;;;;;;10.65;3.03;;;;;;;12.85;70.07;98413.97;10388791;28;20069;-66
2023/03/09 16:41:30;;;;;;;9.75;3.00;;;;;;;12.92;70.25;98422.91;10390299;28;20109;-68
2023/03/09 16:46:33;;;;;;;10.15;3.00;;;;;;;12.84;70.88;98420.34;10390053;28;20054;-74
2023/03/09 16:51:34;;;;;;;8.95;2.50;;;;;;;12.68;71.32;98395.44;10395688;28;20473;-70
2023/03/09 16:56:36;;;;;;;10.77;3.22;;;;;;;12.75;71.19;98390.22;10390868;28;20219;-70
2023/03/09 17:01:37;;;;;;;9.48;3.70;;;;;;;12.72;71.64;98396.75;10403831;28;20044;-68
2023/03/09 17:06:39;;;;;;;7.38;2.58;;;;;;;12.59;72.36;98379.69;10392073;28;20377;-66
2023/03/09 17:11:41;;;;;;;10.15;2.80;;;;;;;12.61;72.32;98378.53;10390307;28;20587;-68
2023/03/09 17:16:42;;;;;;;9.65;3.00;;;;;;;12.62;72.53;98406.84;10389012;28;20459;-66
2023/03/09 17:21:46;;;;;;;11.20;3.00;;;;;;;12.60;72.55;98398.19;10385270;28;20064;-66
2023/03/09 17:26:49;;;;;;;12.03;2.93;;;;;;;12.56;72.85;98396.91;10387175;28;20124;-68
2023/03/09 17:31:51;;;;;;;11.25;3.67;;;;;;;12.54;72.77;98388.25;10388422;28;20057;-67
2023/03/09 17:36:53;;;;;;;8.80;3.28;;;;;;;12.46;73.34;98372.31;10384731;28;20049;-67
2023/03/09 17:41:54;;;;;;;8.93;3.28;;;;;;;12.45;73.66;98374.16;10389163;28;20140;-66
2023/03/09 17:46:55;;;;;;;8.30;2.70;;;;;;;12.43;73.83;98373.53;10386639;28;20374;-68
2023/03/09 17:51:57;;;;;;;9.25;3.63;;;;;;;12.40;73.89;98381.03;10389668;28;20122;-68
2023/03/09 17:56:58;;;;;;;12.45;4.22;;;;;;;12.34;74.03;98378.09;10389004;28;21449;-68
2023/03/09 18:02:02;;;;;;;10.80;2.67;;;;;;;12.26;73.95;98366.66;10408200;28;20500;-69
2023/03/09 18:07:05;;;;;;;8.20;3.50;;;;;;;12.32;73.78;98381.94;10391104;28;20055;-68
2023/03/09 18:12:20;;;;;;;9.60;3.20;;;;;;;12.18;73.69;98360.38;10387189;28;20059;-66
2023/03/09 18:17:21;;;;;;;8.65;3.13;;;;;;;12.28;73.95;98360.16;10384136;28;20052;-68
2023/03/09 18:22:23;;;;;;;12.25;4.13;;;;;;;12.20;74.01;98353.06;10391257;28;20076;-70
2023/03/09 18:27:24;;;;;;;11.63;3.88;;;;;;;12.13;73.78;98333.44;10396402;28;20049;-69
2023/03/09 18:32:26;;;;;;;9.45;3.38;;;;;;;12.23;73.84;98370.53;10387033;28;20052;-69
2023/03/09 18:37:27;;;;;;;6.95;3.00;;;;;;;12.17;74.04;98349.91;10384706;28;20052;-67
2023/03/09 18:42:29;;;;;;;8.77;3.28;;;;;;;12.14;73.88;98343.09;10388092;28;20055;-67
2023/03/09 18:47:30;;;;;;;11.30;3.58;;;;;;;12.08;74.02;98327.81;10398425;28;20080;-67
2023/03/09 18:52:31;;;;;;;10.90;3.05;;;;;;;12.03;73.89;98316.88;10391308;28;20405;-67
2023/03/09 18:57:33;;;;;;;9.23;2.67;;;;;;;12.09;74.00;98331.31;10388095;28;20044;-67
2023/03/09 19:02:34;;;;;;;9.80;3.58;;;;;;;11.92;74.08;98299.44;10385563;28;20053;-68
2023/03/09 19:07:35;;;;;;;9.23;3.30;;;;;;;11.82;74.21;98285.53;10395676;28;20063;-68
2023/03/09 19:12:37;;;;;;;7.65;2.80;;;;;;;12.02;73.84;98310.72;10397004;28;20132;-68
2023/03/09 19:17:38;;;;;;;8.45;2.80;;;;;;;12.05;73.87;98298.00;10393452;28;20136;-68
2023/03/09 19:22:40;;;;;;;9.02;2.80;;;;;;;12.01;73.34;98287.72;10387890;28;20786;-67
2023/03/09 19:27:41;;;;;;;5.60;2.58;;;;;;;11.79;73.20;98233.38;10392962;28;20057;-67
2023/03/09 19:32:44;;;;;;;6.28;2.13;;;;;;;11.75;72.52;98224.09;10395751;28;20056;-67
2023/03/09 19:37:46;;;;;;;10.50;3.42;;;;;;;12.04;72.06;98251.88;10392425;28;20502;-68
2023/03/09 19:42:49;;;;;;;11.07;3.55;;;;;;;12.10;71.41;98258.28;10391504;28;20582;-68
2023/03/09 19:47:52;;;;;;;8.65;3.03;;;;;;;12.03;71.73;98247.53;10392885;28;20187;-67
2023/03/09 19:52:53;;;;;;;7.25;2.45;;;;;;;12.00;71.42;98232.72;10391504;28;20057;-69
2023/03/09 19:57:55;;;;;;;8.82;2.92;;;;;;;12.05;70.22;98232.16;10390690;28;20055;-69
2023/03/09 20:02:56;;;;;;;9.85;2.78;;;;;;;11.95;70.79;98202.28;10389742;28;20064;-69
2023/03/09 20:07:57;;;;;;;10.48;2.33;;;;;;;12.05;70.35;98215.34;10403101;28;20718;-75
2023/03/09 20:12:59;;;;;;;12.13;3.13;;;;;;;11.97;70.36;98189.59;10407131;28;20217;-71
2023/03/09 20:18:00;;;;;;;5.88;3.10;;;;;;;12.01;69.88;98191.72;10405724;28;20278;-71
2023/03/09 20:23:02;;;;;;;6.13;2.10;;;;;;;12.03;69.07;98176.34;10380168;28;20053;-68
2023/03/09 20:28:04;;;;;;;6.38;2.28;;;;;;;12.04;69.17;98163.88;10403244;28;20052;-70
2023/03/09 20:33:05;;;;;;;7.22;2.38;;;;;;;11.98;68.20;98140.59;10405337;28;20048;-73
2023/03/09 20:38:07;;;;;;;10.05;4.18;;;;;;;11.95;68.27;98141.78;10392088;28;20134;-73
2023/03/09 20:43:11;;;;;;;7.23;2.90;;;;;;;11.92;67.12;98131.47;10373741;28;20053;-73
2023/03/09 20:48:12;;;;;;;5.35;2.65;;;;;;;11.93;67.91;98119.81;10393759;28;20072;-71
2023/03/09 20:53:14;;;;;;;7.50;3.67;;;;;;;11.94;66.96;98121.47;10394419;28;20120;-74
2023/03/09 20:58:16;;;;;;;7.20;2.42;;;;;;;11.95;66.46;98122.28;10396112;28;20134;-72
2023/03/09 21:03:18;;;;;;;6.30;2.92;;;;;;;11.86;66.88;98100.22;10402976;28;20051;-71
2023/03/09 21:08:19;;;;;;;9.95;2.33;;;;;;;11.81;65.58;98099.94;10399040;28;20064;-74
2023/03/09 21:13:21;;;;;;;9.73;2.47;;;;;;;11.84;65.70;98096.91;10398487;28;20110;-73
2023/03/09 21:18:22;;;;;;;5.45;1.83;;;;;;;11.88;65.87;98098.19;10397655;28;20057;-73
2023/03/09 21:23:24;;;;;;;6.93;2.33;;;;;;;11.71;65.35;98078.06;10410166;28;20060;-71
2023/03/09 21:28:25;;;;;;;10.35;2.17;;;;;;;11.75;64.76;98069.50;10396508;28;20324;-71
2023/03/09 21:33:27;;;;;;;7.18;2.80;;;;;;;11.81;64.91;98067.94;10400024;28;20057;-73
2023/03/09 21:38:29;;;;;;;9.68;2.63;;;;;;;11.76;64.98;98049.03;10404522;28;20072;-74
2023/03/09 21:43:31;;;;;;;8.68;2.42;;;;;;;11.75;65.06;98056.19;10442466;28;20048;-73
2023/03/09 21:48:33;;;;;;;5.60;2.05;;;;;;;11.62;64.69;98030.19;10432647;28;20452;-74
2023/03/09 21:53:50;;;;;;;7.00;3.08;;;;;;;11.87;65.05;98034.41;10390007;28;20483;-68
2023/03/09 21:58:52;;;;;;;6.03;1.80;;;;;;;11.76;64.94;98027.69;10402577;28;20060;-74
2023/03/09 22:03:55;;;;;;;4.80;1.70;;;;;;;11.71;65.45;98019.41;10385961;28;20385;-75
2023/03/09 22:08:57;;;;;;;7.82;1.92;;;;;;;11.74;65.62;98021.72;10394165;28;20084;-73
2023/03/09 22:13:59;;;;;;;4.18;1.73;;;;;;;11.70;65.89;97999.13;10419692;28;20173;-74
2023/03/09 22:19:03;;;;;;;6.00;2.58;;;;;;;11.81;65.83;98003.97;10410139;28;20105;-71
2023/03/09 22:24:05;;;;;;;5.75;1.77;;;;;;;11.72;66.62;97978.44;10412835;28;20080;-72
2023/03/09 22:29:07;;;;;;;6.05;1.77;;;;;;;11.76;66.76;97980.53;10405674;28;20047;-74
2023/03/09 22:34:09;;;;;;;5.00;1.35;;;;;;;11.85;66.86;97983.94;10415268;28;20224;-72
2023/03/09 22:39:13;;;;;;;5.90;1.83;;;;;;;11.24;66.89;97881.13;10409988;28;20072;-71
2023/03/09 22:44:15;;;;;;;4.57;1.15;;;;;;;11.61;66.97;97926.47;10414685;28;20136;-73
2023/03/09 22:49:16;;;;;;;4.20;1.35;;;;;;;11.71;67.05;97934.13;10433174;28;20049;-70
2023/03/09 22:54:18;;;;;;;3.33;1.15;;;;;;;11.75;67.06;97924.75;10415574;28;20241;-73
2023/03/09 22:59:19;;;;;;;3.17;1.45;;;;;;;11.82;67.10;97937.16;10410084;28;20452;-74
2023/03/09 23:04:21;;;;;;;2.78;1.38;;;;;;;11.82;67.31;97936.34;10415823;28;20087;-74
2023/03/09 23:09:25;;;;;;;4.85;1.55;;;;;;;11.61;67.09;97919.28;10413979;28;20759;-74
2023/03/09 23:14:30;;;;;;;3.83;1.48;;;;;;;11.76;66.77;97929.09;10412418;28;20053;-71
2023/03/09 23:19:32;;;;;;;5.68;1.73;;;;;;;11.62;66.63;97923.59;10411380;28;20088;-72
2023/03/09 23:24:33;;;;;;;7.13;2.30;;;;;;;11.71;66.00;97912.81;10411845;28;20061;-73
2023/03/09 23:29:34;;;;;;;3.20;1.70;;;;;;;11.62;65.77;97898.78;10407063;28;20496;-70
2023/03/09 23:34:36;;;;;;;4.00;1.90;;;;;;;11.59;65.48;97883.16;10413707;28;20048;-73